createdAt,value
2023-08-31T00:02:05.791Z,100857.13
2023-08-31T00:04:32.871Z,100855.81
2023-08-31T00:06:59.791Z,100863.72
2023-08-31T00:09:26.941Z,100859.22
2023-08-31T00:11:53.939Z,100854.00
2023-08-31T00:14:21.038Z,100847.59
2023-08-31T00:16:48.055Z,100852.31
2023-08-31T00:19:16.314Z,100853.47
2023-08-31T00:21:44.114Z,100846.72
2023-08-31T00:24:11.743Z,100855.94
2023-08-31T00:26:44.623Z,100845.63
2023-08-31T00:29:17.750Z,100852.44
2023-08-31T00:31:45.916Z,100851.16
2023-08-31T00:34:15.957Z,100861.13
2023-08-31T00:36:44.991Z,100852.31
2023-08-31T00:39:12.212Z,100850.34
2023-08-31T00:41:40.382Z,100857.97
2023-08-31T00:44:08.277Z,100871.97
2023-08-31T00:46:36.263Z,100862.84
2023-08-31T00:49:05.416Z,100864.47
2023-08-31T00:51:32.658Z,100841.69
2023-08-31T00:54:00.438Z,100854.41
2023-08-31T00:56:28.193Z,100854.41
2023-08-31T00:58:55.811Z,100848.72
2023-08-31T01:01:39.563Z,100860.59
2023-08-31T01:04:21.423Z,100850.53
2023-08-31T01:07:01.864Z,100861.25
2023-08-31T01:09:42.105Z,100850.81
2023-08-31T01:12:31.082Z,100852.34
2023-08-31T01:15:03.597Z,100847.44
2023-08-31T01:17:31.176Z,100860.19
2023-08-31T01:20:00.570Z,100855.47
2023-08-31T01:22:43.725Z,100864.66
2023-08-31T01:25:11.053Z,100869.06
2023-08-31T01:27:38.905Z,100877.84
2023-08-31T01:30:07.015Z,100873.81
2023-08-31T01:32:34.417Z,100879.03
2023-08-31T01:35:02.844Z,100879.34
2023-08-31T01:37:37.207Z,100876.06
2023-08-31T01:40:12.046Z,100868.09
2023-08-31T01:42:40.233Z,100865.69
2023-08-31T01:45:08.253Z,100875.00
2023-08-31T01:47:35.477Z,100879.84
2023-08-31T01:50:03.146Z,100877.94
2023-08-31T01:52:30.272Z,100881.97
2023-08-31T01:54:57.406Z,100874.91
2023-08-31T01:57:24.824Z,100878.19
2023-08-31T02:00:07.250Z,100879.38
2023-08-31T02:02:41.603Z,100885.28
2023-08-31T02:05:09.142Z,100884.44
2023-08-31T02:07:36.099Z,100882.78
2023-08-31T02:10:04.215Z,100887.50
2023-08-31T02:12:31.143Z,100891.44
2023-08-31T02:14:59.514Z,100883.38
2023-08-31T02:17:27.747Z,100887.31
2023-08-31T02:19:54.701Z,100881.31
2023-08-31T02:22:21.712Z,100881.25
2023-08-31T02:24:48.833Z,100885.69
2023-08-31T02:27:15.871Z,100874.50
2023-08-31T02:29:42.880Z,100883.44
2023-08-31T02:32:10.453Z,100887.03
2023-08-31T02:34:37.621Z,100876.28
2023-08-31T02:37:06.975Z,100884.22
2023-08-31T02:39:33.960Z,100879.94
2023-08-31T02:42:01.063Z,100882.81
2023-08-31T02:44:28.211Z,100896.06
2023-08-31T02:46:55.096Z,100891.19
2023-08-31T02:49:22.192Z,100893.16
2023-08-31T02:51:50.546Z,100887.72
2023-08-31T02:54:17.689Z,100885.97
2023-08-31T02:56:44.667Z,100871.84
2023-08-31T02:59:11.794Z,100866.63
2023-08-31T03:01:40.377Z,100861.03
2023-08-31T03:04:07.787Z,100864.34
2023-08-31T03:06:34.785Z,100857.91
2023-08-31T03:09:03.520Z,100854.31
2023-08-31T03:11:31.959Z,100852.47
2023-08-31T03:13:59.043Z,100852.50
2023-08-31T03:16:26.065Z,100845.47
2023-08-31T03:18:53.074Z,100841.22
2023-08-31T03:21:21.193Z,100853.56
2023-08-31T03:23:48.355Z,100856.72
2023-08-31T03:26:15.247Z,100837.75
2023-08-31T03:28:42.445Z,100856.41
2023-08-31T03:31:09.516Z,100855.88
2023-08-31T03:33:36.743Z,100845.81
2023-08-31T03:36:05.888Z,100843.28
2023-08-31T03:38:44.064Z,100851.53
2023-08-31T03:41:11.133Z,100860.28
2023-08-31T03:43:39.927Z,100865.84
2023-08-31T03:46:07.069Z,100869.47
2023-08-31T03:48:34.116Z,100868.97
2023-08-31T03:51:01.266Z,100881.72
2023-08-31T03:53:28.154Z,100879.34
2023-08-31T03:55:58.213Z,100873.38
2023-08-31T03:58:26.065Z,100893.81
2023-08-31T04:00:55.627Z,100903.81
2023-08-31T04:03:23.610Z,100903.06
2023-08-31T04:05:55.845Z,100907.06
2023-08-31T04:08:22.855Z,100916.28
2023-08-31T04:10:49.749Z,100912.75
2023-08-31T04:13:16.788Z,100915.53
2023-08-31T04:15:43.794Z,100897.09
2023-08-31T04:18:11.052Z,100906.66
2023-08-31T04:20:38.313Z,100898.28
2023-08-31T04:23:05.203Z,100907.09
2023-08-31T04:25:32.831Z,100904.69
2023-08-31T04:27:59.735Z,100912.25
2023-08-31T04:30:28.144Z,100917.84
2023-08-31T04:32:55.429Z,100919.41
2023-08-31T04:35:22.442Z,100926.19
2023-08-31T04:37:49.593Z,100928.19
2023-08-31T04:40:16.683Z,100941.88
2023-08-31T04:42:44.263Z,100949.50
2023-08-31T04:45:13.580Z,100960.34
2023-08-31T04:47:40.649Z,100948.34
2023-08-31T04:50:08.707Z,100957.22
2023-08-31T04:52:36.237Z,100965.97
2023-08-31T04:55:09.013Z,100968.34
2023-08-31T04:57:36.469Z,100967.50
2023-08-31T05:00:04.742Z,100980.94
2023-08-31T05:02:31.798Z,100976.47
2023-08-31T05:04:58.773Z,100984.31
2023-08-31T05:07:25.796Z,100994.56
2023-08-31T05:09:52.783Z,100985.63
2023-08-31T05:12:19.835Z,100994.03
2023-08-31T05:14:46.786Z,100996.75
2023-08-31T05:17:13.874Z,101000.34
2023-08-31T05:19:40.848Z,101000.66
2023-08-31T05:22:07.932Z,101000.91
2023-08-31T05:24:34.876Z,100998.84
2023-08-31T05:27:01.910Z,100990.88
2023-08-31T05:29:28.863Z,101000.91
2023-08-31T05:31:56.034Z,101003.03
2023-08-31T05:34:24.604Z,101011.78
2023-08-31T05:36:51.739Z,101014.88
2023-08-31T05:39:18.709Z,101011.78
2023-08-31T05:41:45.878Z,101017.00
2023-08-31T05:44:12.836Z,101013.00
2023-08-31T05:46:41.963Z,101025.00
2023-08-31T05:49:09.233Z,101017.00
2023-08-31T05:51:36.543Z,101022.59
2023-08-31T05:54:04.715Z,101020.66
2023-08-31T05:56:34.904Z,101025.50
2023-08-31T05:59:03.360Z,101037.63
2023-08-31T06:01:30.265Z,101039.97
2023-08-31T06:03:57.305Z,101040.59
2023-08-31T06:06:24.407Z,101047.97
2023-08-31T06:08:51.412Z,101034.00
2023-08-31T06:11:18.616Z,101048.84
2023-08-31T06:13:45.463Z,101046.34
2023-08-31T06:16:12.870Z,101053.91
2023-08-31T06:18:39.866Z,101058.59
2023-08-31T06:21:06.931Z,101069.38
2023-08-31T06:23:33.773Z,101073.03
2023-08-31T06:26:00.874Z,101065.19
2023-08-31T06:28:27.945Z,101073.34
2023-08-31T06:30:54.930Z,101072.94
2023-08-31T06:33:23.173Z,101070.63
2023-08-31T06:35:53.357Z,101067.53
2023-08-31T06:38:21.124Z,101068.50
2023-08-31T06:40:48.536Z,101065.31
2023-08-31T06:43:15.741Z,101069.34
2023-08-31T06:45:43.154Z,101082.69
2023-08-31T06:48:10.400Z,101082.03
2023-08-31T06:50:37.439Z,101083.94
2023-08-31T06:53:04.709Z,101097.00
2023-08-31T06:55:33.515Z,101096.50
2023-08-31T06:58:02.151Z,101099.72
2023-08-31T07:00:29.475Z,101109.09
2023-08-31T07:02:56.653Z,101099.22
2023-08-31T07:05:27.115Z,101102.50
2023-08-31T07:07:55.498Z,101099.47
2023-08-31T07:10:23.239Z,101082.13
2023-08-31T07:12:50.288Z,101080.75
2023-08-31T07:15:17.649Z,101080.28
2023-08-31T07:17:44.817Z,101074.91
2023-08-31T07:20:12.975Z,101073.22
2023-08-31T07:22:41.478Z,101079.97
2023-08-31T07:25:08.836Z,101083.19
2023-08-31T07:27:35.986Z,101086.06
2023-08-31T07:30:04.477Z,101088.94
2023-08-31T07:32:31.533Z,101076.16
2023-08-31T07:34:58.660Z,101074.28
2023-08-31T07:37:25.723Z,101064.09
2023-08-31T07:39:52.672Z,101070.63
2023-08-31T07:42:19.728Z,101064.66
2023-08-31T07:44:46.687Z,101059.81
2023-08-31T07:47:14.124Z,101054.47
2023-08-31T07:49:41.072Z,101058.88
2023-08-31T07:52:08.117Z,101052.81
2023-08-31T07:54:35.246Z,101056.88
2023-08-31T07:57:02.136Z,101052.94
2023-08-31T07:59:29.231Z,101058.66
2023-08-31T08:01:56.226Z,101049.28
2023-08-31T08:04:23.533Z,101048.28
2023-08-31T08:06:52.162Z,101049.25
2023-08-31T08:09:19.099Z,101047.66
2023-08-31T08:11:46.067Z,101044.00
2023-08-31T08:14:12.917Z,101051.22
2023-08-31T08:16:40.017Z,101046.38
2023-08-31T08:19:07.935Z,101047.28
2023-08-31T08:21:35.980Z,101044.16
2023-08-31T08:24:03.047Z,101054.22
2023-08-31T08:26:30.169Z,101051.84
2023-08-31T08:28:57.190Z,101052.72
2023-08-31T08:31:25.407Z,101049.94
2023-08-31T08:33:52.920Z,101050.00
2023-08-31T08:36:19.879Z,101049.59
2023-08-31T08:38:46.786Z,101054.41
2023-08-31T08:41:15.146Z,101052.03
2023-08-31T08:43:44.960Z,101052.88
2023-08-31T08:46:12.263Z,101044.00
2023-08-31T08:48:39.500Z,101046.84
2023-08-31T08:51:07.209Z,101054.50
2023-08-31T08:53:34.813Z,101044.88
2023-08-31T08:56:01.720Z,101053.72
2023-08-31T08:58:28.810Z,101053.31
2023-08-31T09:00:59.203Z,101044.47
2023-08-31T09:03:26.238Z,101053.31
2023-08-31T09:05:56.181Z,101050.94
2023-08-31T09:08:30.473Z,101052.88
2023-08-31T09:11:01.144Z,101062.56
2023-08-31T09:13:32.441Z,101052.53
2023-08-31T09:15:59.614Z,101064.59
2023-08-31T09:18:27.472Z,101063.78
2023-08-31T09:20:57.978Z,101068.16
2023-08-31T09:23:25.984Z,101068.47
2023-08-31T09:25:55.069Z,101071.31
2023-08-31T09:28:24.184Z,101075.44
2023-08-31T09:30:53.365Z,101065.78
2023-08-31T09:33:24.576Z,101063.06
2023-08-31T09:35:53.646Z,101070.97
2023-08-31T09:38:20.990Z,101063.06
2023-08-31T09:40:48.134Z,101065.44
2023-08-31T09:43:22.539Z,101067.31
2023-08-31T09:45:50.348Z,101075.34
2023-08-31T09:48:18.016Z,101061.69
2023-08-31T09:50:49.063Z,101071.94
2023-08-31T09:53:18.236Z,101073.22
2023-08-31T09:55:45.350Z,101074.13
2023-08-31T09:58:16.351Z,101087.38
2023-08-31T10:00:45.295Z,101080.13
2023-08-31T10:03:18.931Z,101091.13
2023-08-31T10:05:48.352Z,101092.56
2023-08-31T10:08:16.441Z,101092.13
2023-08-31T10:10:44.213Z,101088.63
2023-08-31T10:13:13.116Z,101099.16
2023-08-31T10:15:41.073Z,101098.00
2023-08-31T10:18:08.864Z,101091.97
2023-08-31T10:20:36.557Z,101101.22
2023-08-31T10:23:04.814Z,101099.19
2023-08-31T10:25:47.042Z,101098.81
2023-08-31T10:28:24.361Z,101099.16
2023-08-31T10:31:04.897Z,101110.88
2023-08-31T10:33:41.940Z,101116.94
2023-08-31T10:36:19.801Z,101114.50
2023-08-31T10:38:58.651Z,101117.69
2023-08-31T10:41:27.063Z,101134.63
2023-08-31T10:44:00.950Z,101131.03
2023-08-31T10:46:32.103Z,101129.31
2023-08-31T10:49:07.444Z,101131.34
2023-08-31T10:51:34.578Z,101119.47
2023-08-31T10:54:22.418Z,101123.56
2023-08-31T10:57:05.469Z,101116.59
2023-08-31T10:59:46.357Z,101108.84
2023-08-31T11:02:43.767Z,101107.59
2023-08-31T11:05:18.839Z,101115.28
2023-08-31T11:07:50.976Z,101110.06
2023-08-31T11:10:24.910Z,101105.47
2023-08-31T11:12:54.239Z,101093.88
2023-08-31T11:15:23.571Z,101097.69
2023-08-31T11:17:55.286Z,101093.19
2023-08-31T11:20:23.719Z,101094.38
2023-08-31T11:22:52.004Z,101100.41
2023-08-31T11:25:19.536Z,101098.66
2023-08-31T11:27:55.528Z,101097.78
2023-08-31T11:30:22.507Z,101102.97
2023-08-31T11:32:53.049Z,101102.13
2023-08-31T11:35:21.501Z,101102.13
2023-08-31T11:37:51.984Z,101101.84
2023-08-31T11:40:19.115Z,101099.00
2023-08-31T11:42:47.074Z,101097.09
2023-08-31T11:45:15.093Z,101101.31
2023-08-31T11:47:43.114Z,101100.91
2023-08-31T11:50:10.382Z,101108.59
2023-08-31T11:52:39.449Z,101111.44
2023-08-31T11:55:15.001Z,101118.00
2023-08-31T11:57:42.141Z,101113.78
2023-08-31T12:00:12.153Z,101116.69
2023-08-31T12:02:39.266Z,101112.06
2023-08-31T12:05:06.872Z,101111.53
2023-08-31T12:07:34.110Z,101112.31
2023-08-31T12:10:05.001Z,101113.63
2023-08-31T12:12:33.967Z,101125.56
2023-08-31T12:15:05.033Z,101116.16
2023-08-31T12:17:32.198Z,101123.03
2023-08-31T12:20:06.326Z,101124.31
2023-08-31T12:22:33.486Z,101118.75
2023-08-31T12:25:00.364Z,101123.06
2023-08-31T12:27:27.535Z,101120.66
2023-08-31T12:29:54.452Z,101114.63
2023-08-31T12:32:21.436Z,101123.06
2023-08-31T12:34:48.337Z,101127.91
2023-08-31T12:37:15.384Z,101127.03
2023-08-31T12:39:45.996Z,101120.44
2023-08-31T12:42:22.446Z,101121.94
2023-08-31T12:44:51.286Z,101121.31
2023-08-31T12:47:18.377Z,101125.31
2023-08-31T12:49:45.355Z,101129.22
2023-08-31T12:52:12.208Z,101130.16
2023-08-31T12:54:39.234Z,101137.22
2023-08-31T12:57:06.588Z,101140.88
2023-08-31T12:59:33.829Z,101141.38
2023-08-31T13:02:01.249Z,101140.56
2023-08-31T13:04:28.206Z,101143.97
2023-08-31T13:06:55.956Z,101133.91
2023-08-31T13:09:23.131Z,101140.16
2023-08-31T13:11:50.729Z,101136.97
2023-08-31T13:14:17.797Z,101141.00
2023-08-31T13:16:44.747Z,101141.00
2023-08-31T13:19:11.777Z,101142.50
2023-08-31T13:21:38.741Z,101137.44
2023-08-31T13:24:06.238Z,101130.06
2023-08-31T13:26:33.177Z,101138.78
2023-08-31T13:29:01.430Z,101140.09
2023-08-31T13:31:30.123Z,101127.78
2023-08-31T13:33:57.098Z,101136.28
2023-08-31T13:36:24.129Z,101127.31
2023-08-31T13:38:51.025Z,101129.25
2023-08-31T13:41:18.793Z,101133.00
2023-08-31T13:43:45.712Z,101136.28
2023-08-31T13:46:13.400Z,101131.28
2023-08-31T13:48:40.424Z,101134.41
2023-08-31T13:51:07.348Z,101143.94
2023-08-31T13:53:34.567Z,101142.97
2023-08-31T13:56:01.467Z,101149.50
2023-08-31T13:58:28.617Z,101142.91
2023-08-31T14:00:55.696Z,101148.94
2023-08-31T14:03:22.820Z,101146.13
2023-08-31T14:05:50.566Z,101146.66
2023-08-31T14:08:17.625Z,101156.22
2023-08-31T14:10:44.533Z,101149.00
2023-08-31T14:13:11.509Z,101154.44
2023-08-31T14:15:45.349Z,101152.19
2023-08-31T14:18:12.744Z,101141.47
2023-08-31T14:20:40.248Z,101144.69
2023-08-31T14:23:07.566Z,101143.19
2023-08-31T14:25:39.500Z,101148.03
2023-08-31T14:28:06.614Z,101140.88
2023-08-31T14:30:33.920Z,101138.91
2023-08-31T14:33:00.774Z,101141.75
2023-08-31T14:35:28.872Z,101140.03
2023-08-31T14:37:55.736Z,101140.81
2023-08-31T14:40:22.836Z,101147.25
2023-08-31T14:42:49.918Z,101148.44
2023-08-31T14:45:17.080Z,101136.22
2023-08-31T14:47:44.087Z,101149.75
2023-08-31T14:50:11.018Z,101148.06
2023-08-31T14:52:38.159Z,101161.47
2023-08-31T14:55:05.499Z,101150.59
2023-08-31T14:57:32.677Z,101159.06
2023-08-31T15:00:03.058Z,101163.13
2023-08-31T15:02:30.833Z,101163.66
2023-08-31T15:04:57.926Z,101167.25
2023-08-31T15:07:24.968Z,101161.97
2023-08-31T15:09:53.752Z,101167.63
2023-08-31T15:12:20.753Z,101156.34
2023-08-31T15:14:47.904Z,101174.16
2023-08-31T15:17:16.033Z,101164.13
2023-08-31T15:19:43.369Z,101159.59
2023-08-31T15:22:10.314Z,101170.06
2023-08-31T15:24:37.944Z,101166.00
2023-08-31T15:27:05.149Z,101162.38
2023-08-31T15:29:32.880Z,101164.81
2023-08-31T15:32:00.650Z,101170.47
2023-08-31T15:34:28.509Z,101174.97
2023-08-31T15:36:55.477Z,101166.50
2023-08-31T15:39:23.573Z,101176.22
2023-08-31T15:41:50.539Z,101182.31
2023-08-31T15:44:17.397Z,101178.22
2023-08-31T15:46:45.009Z,101171.44
2023-08-31T15:49:11.925Z,101179.53
2023-08-31T15:51:38.999Z,101174.72
2023-08-31T15:54:06.618Z,101172.72
2023-08-31T15:56:33.984Z,101176.34
2023-08-31T15:59:00.935Z,101178.81
2023-08-31T16:01:28.670Z,101173.97
2023-08-31T16:03:55.576Z,101178.41
2023-08-31T16:06:23.678Z,101191.72
2023-08-31T16:08:50.768Z,101182.88
2023-08-31T16:11:17.844Z,101189.31
2023-08-31T16:13:44.955Z,101182.09
2023-08-31T16:16:12.072Z,101190.94
2023-08-31T16:18:39.484Z,101188.50
2023-08-31T16:21:06.375Z,101179.25
2023-08-31T16:23:33.484Z,101183.72
2023-08-31T16:26:00.469Z,101190.94
2023-08-31T16:28:27.400Z,101186.13
2023-08-31T16:30:54.532Z,101186.16
2023-08-31T16:33:21.546Z,101192.56
2023-08-31T16:35:49.812Z,101188.94
2023-08-31T16:38:18.673Z,101188.56
2023-08-31T16:40:46.697Z,101178.09
2023-08-31T16:43:13.796Z,101193.41
2023-08-31T16:45:40.680Z,101197.44
2023-08-31T16:48:07.971Z,101193.00
2023-08-31T16:50:36.482Z,101188.16
2023-08-31T16:53:04.551Z,101191.78
2023-08-31T16:55:32.021Z,101195.41
2023-08-31T16:58:00.090Z,101187.34
2023-08-31T17:00:27.564Z,101193.34
2023-08-31T17:02:54.640Z,101197.78
2023-08-31T17:05:23.075Z,101191.75
2023-08-31T17:07:50.289Z,101187.34
2023-08-31T17:10:17.415Z,101186.13
2023-08-31T17:12:44.527Z,101190.94
2023-08-31T17:15:11.624Z,101193.78
2023-08-31T17:17:39.008Z,101190.16
2023-08-31T17:20:07.295Z,101186.47
2023-08-31T17:22:35.024Z,101192.91
2023-08-31T17:25:02.342Z,101190.09
2023-08-31T17:27:30.239Z,101189.66
2023-08-31T17:29:57.364Z,101186.47
2023-08-31T17:32:24.467Z,101178.00
2023-08-31T17:34:51.362Z,101193.69
2023-08-31T17:37:18.317Z,101197.66
2023-08-31T17:39:45.218Z,101191.59
2023-08-31T17:42:12.213Z,101195.19
2023-08-31T17:44:39.138Z,101191.91
2023-08-31T17:47:06.356Z,101194.69
2023-08-31T17:49:33.328Z,101203.47
2023-08-31T17:52:00.568Z,101191.34
2023-08-31T17:54:27.436Z,101198.53
2023-08-31T17:56:54.485Z,101191.13
2023-08-31T17:59:21.446Z,101197.94
2023-08-31T18:01:48.656Z,101189.06
2023-08-31T18:04:15.628Z,101182.63
2023-08-31T18:06:42.877Z,101184.59
2023-08-31T18:09:10.584Z,101182.56
2023-08-31T18:11:37.834Z,101184.88
2023-08-31T18:14:06.889Z,101188.41
2023-08-31T18:16:34.021Z,101190.69
2023-08-31T18:19:00.898Z,101193.44
2023-08-31T18:21:27.815Z,101200.97
2023-08-31T18:23:54.797Z,101202.00
2023-08-31T18:26:22.719Z,101207.56
2023-08-31T18:28:49.621Z,101200.25
2023-08-31T18:31:18.011Z,101205.78
2023-08-31T18:33:44.937Z,101202.50
2023-08-31T18:36:11.995Z,101201.63
2023-08-31T18:38:39.366Z,101206.34
2023-08-31T18:41:06.453Z,101211.13
2023-08-31T18:43:33.295Z,101211.09
2023-08-31T18:46:00.224Z,101219.03
2023-08-31T18:48:27.187Z,101209.75
2023-08-31T18:51:01.075Z,101215.47
2023-08-31T18:53:28.436Z,101221.09
2023-08-31T18:55:59.698Z,101221.84
2023-08-31T18:58:26.793Z,101225.88
2023-08-31T19:00:53.770Z,101235.88
2023-08-31T19:03:20.821Z,101227.41
2023-08-31T19:05:52.064Z,101236.19
2023-08-31T19:08:19.334Z,101232.59
2023-08-31T19:10:46.334Z,101228.56
2023-08-31T19:13:13.347Z,101232.63
2023-08-31T19:15:40.275Z,101228.16
2023-08-31T19:18:10.684Z,101235.66
2023-08-31T19:20:39.537Z,101238.81
2023-08-31T19:23:06.690Z,101236.31
2023-08-31T19:25:33.850Z,101246.72
2023-08-31T19:28:02.524Z,101241.38
2023-08-31T19:30:30.139Z,101247.78
2023-08-31T19:32:58.443Z,101244.19
2023-08-31T19:35:55.122Z,101241.84
2023-08-31T19:38:14.004Z,101245.91
2023-08-31T19:40:41.143Z,101250.34
2023-08-31T19:43:08.084Z,101240.38
2023-08-31T19:45:35.217Z,101245.88
2023-08-31T19:48:02.192Z,101253.38
2023-08-31T19:50:30.477Z,101258.09
2023-08-31T19:52:57.454Z,101260.91
2023-08-31T19:55:24.541Z,101260.16
2023-08-31T19:57:51.444Z,101252.16
2023-08-31T20:00:23.591Z,101259.84
2023-08-31T20:02:50.789Z,101255.03
2023-08-31T20:05:21.960Z,101252.59
2023-08-31T20:07:49.584Z,101264.69
2023-08-31T20:10:17.337Z,101262.22
2023-08-31T20:12:44.466Z,101267.75
2023-08-31T20:15:11.569Z,101265.00
2023-08-31T20:17:38.712Z,101270.97
2023-08-31T20:20:06.476Z,101263.34
2023-08-31T20:22:33.378Z,101262.53
2023-08-31T20:25:01.196Z,101259.66
2023-08-31T20:27:28.092Z,101251.19
2023-08-31T20:29:55.127Z,101253.22
2023-08-31T20:32:22.000Z,101260.84
2023-08-31T20:34:49.327Z,101264.03
2023-08-31T20:37:17.181Z,101267.22
2023-08-31T20:39:45.289Z,101274.41
2023-08-31T20:42:15.115Z,101279.63
2023-08-31T20:44:42.164Z,101272.38
2023-08-31T20:47:09.596Z,101262.88
2023-08-31T20:49:37.224Z,101270.06
2023-08-31T20:52:04.939Z,101281.66
2023-08-31T20:54:31.892Z,101291.31
2023-08-31T20:56:58.916Z,101289.34
2023-08-31T20:59:27.007Z,101294.19
2023-08-31T21:01:55.178Z,101295.28
2023-08-31T21:04:22.041Z,101294.47
2023-08-31T21:06:50.634Z,101296.03
2023-08-31T21:09:17.673Z,101306.94
2023-08-31T21:11:44.872Z,101305.75
2023-08-31T21:14:11.924Z,101308.97
2023-08-31T21:16:39.410Z,101305.09
2023-08-31T21:19:06.555Z,101302.38
2023-08-31T21:21:33.904Z,101301.63
2023-08-31T21:24:00.977Z,101296.50
2023-08-31T21:26:29.134Z,101302.13
2023-08-31T21:28:56.216Z,101304.75
2023-08-31T21:31:23.273Z,101296.41
2023-08-31T21:33:50.335Z,101296.47
2023-08-31T21:36:17.165Z,101311.00
2023-08-31T21:38:44.576Z,101297.03
2023-08-31T21:41:11.426Z,101300.00
2023-08-31T21:43:38.475Z,101297.22
2023-08-31T21:46:05.742Z,101291.69
2023-08-31T21:48:32.947Z,101286.06
2023-08-31T21:51:00.649Z,101285.25
2023-08-31T21:53:27.673Z,101284.09
2023-08-31T21:55:54.620Z,101285.31
2023-08-31T21:58:21.798Z,101297.00
2023-08-31T22:00:48.877Z,101280.66
2023-08-31T22:03:16.033Z,101277.84
2023-08-31T22:05:43.230Z,101281.88
2023-08-31T22:08:12.110Z,101270.53
2023-08-31T22:10:40.755Z,101274.09
2023-08-31T22:13:08.553Z,101267.16
2023-08-31T22:15:36.512Z,101268.25
2023-08-31T22:18:05.093Z,101263.03
2023-08-31T22:20:32.386Z,101265.03
2023-08-31T22:23:00.882Z,101260.72
2023-08-31T22:25:29.617Z,101261.94
2023-08-31T22:27:58.448Z,101262.81
2023-08-31T22:30:26.742Z,101262.06
2023-08-31T22:32:55.382Z,101269.16
2023-08-31T22:35:24.722Z,101267.66
2023-08-31T22:37:52.522Z,101255.88
2023-08-31T22:40:19.526Z,101259.03
2023-08-31T22:42:46.683Z,101262.16
2023-08-31T22:45:14.125Z,101258.53
2023-08-31T22:47:41.291Z,101250.13
2023-08-31T22:50:11.752Z,101258.94
2023-08-31T22:52:39.006Z,101267.00
2023-08-31T22:55:06.351Z,101265.84
2023-08-31T22:57:35.288Z,101271.94
2023-08-31T23:00:02.272Z,101263.03
2023-08-31T23:02:29.343Z,101257.38
2023-08-31T23:04:56.698Z,101253.69
2023-08-31T23:07:23.751Z,101257.78
2023-08-31T23:09:50.876Z,101247.72
2023-08-31T23:12:17.893Z,101243.31
2023-08-31T23:14:46.178Z,101241.75
2023-08-31T23:17:13.540Z,101225.69
2023-08-31T23:19:41.256Z,101233.84
2023-08-31T23:22:08.385Z,101235.97
2023-08-31T23:24:35.544Z,101234.94
2023-08-31T23:27:02.606Z,101243.34
2023-08-31T23:29:29.828Z,101234.47
2023-08-31T23:31:56.753Z,101232.47
2023-08-31T23:34:23.751Z,101214.75
2023-08-31T23:36:51.959Z,101218.78
2023-08-31T23:39:19.098Z,101219.59
2023-08-31T23:41:45.954Z,101215.63
2023-08-31T23:44:13.045Z,101233.28
2023-08-31T23:46:40.057Z,101217.75
2023-08-31T23:49:07.046Z,101223.34
2023-08-31T23:51:35.677Z,101229.34
2023-08-31T23:54:02.690Z,101221.72
2023-08-31T23:56:29.564Z,101238.56
2023-08-31T23:58:56.572Z,101244.16
